sensor_id;sensor_type;location;lat;lon;timestamp;P1;durP1;ratioP1;P2;durP2;ratioP2
65238;SDS011;51827;51.186;6.926;2022-12-18T00:00:09;4.68;;;3.28;;
65238;SDS011;51827;51.186;6.926;2022-12-18T00:01:14;4.22;;;3.17;;
65238;SDS011;51827;51.186;6.926;2022-12-18T00:02:24;6.05;;;3.50;;
65238;SDS011;51827;51.186;6.926;2022-12-18T00:03:25;4.37;;;3.13;;
65238;SDS011;51827;51.186;6.926;2022-12-18T00:04:26;6.25;;;3.90;;
65238;SDS011;51827;51.186;6.926;2022-12-18T00:05:27;5.15;;;3.47;;
65238;SDS011;51827;51.186;6.926;2022-12-18T00:06:28;5.20;;;3.30;;
65238;SDS011;51827;51.186;6.926;2022-12-18T00:07:29;5.95;;;3.60;;
65238;SDS011;51827;51.186;6.926;2022-12-18T00:08:29;5.53;;;3.33;;
65238;SDS011;51827;51.186;6.926;2022-12-18T00:09:29;6.73;;;3.50;;
65238;SDS011;51827;51.186;6.926;2022-12-18T00:10:29;4.07;;;2.90;;
65238;SDS011;51827;51.186;6.926;2022-12-18T00:11:30;5.57;;;3.67;;
65238;SDS011;51827;51.186;6.926;2022-12-18T00:12:31;5.60;;;3.58;;
65238;SDS011;51827;51.186;6.926;2022-12-18T00:13:31;5.60;;;3.40;;
65238;SDS011;51827;51.186;6.926;2022-12-18T00:14:31;5.50;;;2.97;;
65238;SDS011;51827;51.186;6.926;2022-12-18T00:15:36;4.72;;;3.25;;
65238;SDS011;51827;51.186;6.926;2022-12-18T00:16:37;5.32;;;3.28;;
65238;SDS011;51827;51.186;6.926;2022-12-18T00:17:37;5.38;;;3.47;;
65238;SDS011;51827;51.186;6.926;2022-12-18T00:18:37;4.70;;;3.30;;
65238;SDS011;51827;51.186;6.926;2022-12-18T00:19:38;4.50;;;3.40;;
65238;SDS011;51827;51.186;6.926;2022-12-18T00:20:39;4.80;;;3.13;;
65238;SDS011;51827;51.186;6.926;2022-12-18T00:21:39;4.45;;;3.17;;
65238;SDS011;51827;51.186;6.926;2022-12-18T00:22:41;4.30;;;3.15;;
65238;SDS011;51827;51.186;6.926;2022-12-18T00:23:42;5.40;;;3.17;;
65238;SDS011;51827;51.186;6.926;2022-12-18T00:24:43;5.07;;;3.40;;
65238;SDS011;51827;51.186;6.926;2022-12-18T00:25:43;4.47;;;3.20;;
65238;SDS011;51827;51.186;6.926;2022-12-18T00:26:44;4.60;;;3.20;;
65238;SDS011;51827;51.186;6.926;2022-12-18T00:27:44;4.67;;;3.13;;
65238;SDS011;51827;51.186;6.926;2022-12-18T00:28:45;4.77;;;2.87;;
65238;SDS011;51827;51.186;6.926;2022-12-18T00:29:45;5.05;;;3.53;;
65238;SDS011;51827;51.186;6.926;2022-12-18T00:30:45;5.53;;;3.37;;
65238;SDS011;51827;51.186;6.926;2022-12-18T00:31:46;6.43;;;3.10;;
65238;SDS011;51827;51.186;6.926;2022-12-18T00:32:46;5.23;;;3.40;;
65238;SDS011;51827;51.186;6.926;2022-12-18T00:33:46;5.37;;;3.30;;
65238;SDS011;51827;51.186;6.926;2022-12-18T00:34:47;4.85;;;3.40;;
65238;SDS011;51827;51.186;6.926;2022-12-18T00:35:47;5.37;;;3.10;;
65238;SDS011;51827;51.186;6.926;2022-12-18T00:36:47;5.10;;;2.97;;
65238;SDS011;51827;51.186;6.926;2022-12-18T00:37:48;4.23;;;2.93;;
65238;SDS011;51827;51.186;6.926;2022-12-18T00:38:48;4.80;;;3.03;;
65238;SDS011;51827;51.186;6.926;2022-12-18T00:39:49;4.40;;;2.90;;
65238;SDS011;51827;51.186;6.926;2022-12-18T00:40:49;5.27;;;3.20;;
65238;SDS011;51827;51.186;6.926;2022-12-18T00:41:49;5.17;;;3.40;;
65238;SDS011;51827;51.186;6.926;2022-12-18T00:42:49;4.80;;;3.40;;
65238;SDS011;51827;51.186;6.926;2022-12-18T00:43:50;4.17;;;3.07;;
65238;SDS011;51827;51.186;6.926;2022-12-18T00:44:50;6.30;;;3.43;;
65238;SDS011;51827;51.186;6.926;2022-12-18T00:45:50;3.80;;;2.97;;
65238;SDS011;51827;51.186;6.926;2022-12-18T00:46:51;5.45;;;3.35;;
65238;SDS011;51827;51.186;6.926;2022-12-18T00:47:51;4.90;;;3.10;;
65238;SDS011;51827;51.186;6.926;2022-12-18T00:48:51;4.47;;;3.10;;
65238;SDS011;51827;51.186;6.926;2022-12-18T00:49:51;4.83;;;3.20;;
65238;SDS011;51827;51.186;6.926;2022-12-18T00:50:52;3.73;;;2.77;;
65238;SDS011;51827;51.186;6.926;2022-12-18T00:51:55;4.57;;;2.93;;
65238;SDS011;51827;51.186;6.926;2022-12-18T00:52:55;4.53;;;3.00;;
65238;SDS011;51827;51.186;6.926;2022-12-18T00:53:55;3.77;;;2.70;;
65238;SDS011;51827;51.186;6.926;2022-12-18T00:54:56;4.60;;;3.07;;
65238;SDS011;51827;51.186;6.926;2022-12-18T00:55:56;3.80;;;2.87;;
65238;SDS011;51827;51.186;6.926;2022-12-18T00:56:56;4.00;;;2.97;;
65238;SDS011;51827;51.186;6.926;2022-12-18T00:57:56;3.93;;;2.80;;
65238;SDS011;51827;51.186;6.926;2022-12-18T00:58:57;4.07;;;2.97;;
65238;SDS011;51827;51.186;6.926;2022-12-18T00:59:57;4.43;;;3.07;;
65238;SDS011;51827;51.186;6.926;2022-12-18T01:00:57;4.77;;;3.20;;
65238;SDS011;51827;51.186;6.926;2022-12-18T01:01:57;4.53;;;3.17;;
65238;SDS011;51827;51.186;6.926;2022-12-18T01:02:58;4.50;;;2.80;;
65238;SDS011;51827;51.186;6.926;2022-12-18T01:03:59;4.20;;;2.80;;
65238;SDS011;51827;51.186;6.926;2022-12-18T01:05:00;5.65;;;3.13;;
65238;SDS011;51827;51.186;6.926;2022-12-18T01:06:08;4.50;;;3.17;;
65238;SDS011;51827;51.186;6.926;2022-12-18T01:07:09;5.15;;;3.20;;
65238;SDS011;51827;51.186;6.926;2022-12-18T01:08:10;5.07;;;2.87;;
65238;SDS011;51827;51.186;6.926;2022-12-18T01:09:10;5.03;;;3.20;;
65238;SDS011;51827;51.186;6.926;2022-12-18T01:10:11;4.38;;;3.08;;
65238;SDS011;51827;51.186;6.926;2022-12-18T01:11:16;5.43;;;3.15;;
65238;SDS011;51827;51.186;6.926;2022-12-18T01:12:17;4.22;;;3.13;;
65238;SDS011;51827;51.186;6.926;2022-12-18T01:13:17;4.03;;;2.80;;
65238;SDS011;51827;51.186;6.926;2022-12-18T01:14:18;4.57;;;3.13;;
65238;SDS011;51827;51.186;6.926;2022-12-18T01:15:18;3.70;;;2.80;;
65238;SDS011;51827;51.186;6.926;2022-12-18T01:16:19;10.70;;;3.00;;
65238;SDS011;51827;51.186;6.926;2022-12-18T01:17:20;4.88;;;2.95;;
65238;SDS011;51827;51.186;6.926;2022-12-18T01:18:21;3.67;;;2.63;;
65238;SDS011;51827;51.186;6.926;2022-12-18T01:19:21;5.47;;;3.30;;
65238;SDS011;51827;51.186;6.926;2022-12-18T01:20:22;4.13;;;2.90;;
65238;SDS011;51827;51.186;6.926;2022-12-18T01:21:22;4.83;;;2.90;;
65238;SDS011;51827;51.186;6.926;2022-12-18T01:22:23;4.15;;;3.03;;
65238;SDS011;51827;51.186;6.926;2022-12-18T01:23:24;3.58;;;2.70;;
65238;SDS011;51827;51.186;6.926;2022-12-18T01:24:24;4.10;;;2.60;;
65238;SDS011;51827;51.186;6.926;2022-12-18T01:25:24;4.17;;;2.67;;
65238;SDS011;51827;51.186;6.926;2022-12-18T01:26:25;4.13;;;3.03;;
65238;SDS011;51827;51.186;6.926;2022-12-18T01:27:25;5.30;;;3.30;;
65238;SDS011;51827;51.186;6.926;2022-12-18T01:28:26;4.13;;;2.67;;
65238;SDS011;51827;51.186;6.926;2022-12-18T01:29:26;3.83;;;2.73;;
65238;SDS011;51827;51.186;6.926;2022-12-18T01:30:26;4.13;;;3.10;;
65238;SDS011;51827;51.186;6.926;2022-12-18T01:31:28;4.63;;;2.90;;
65238;SDS011;51827;51.186;6.926;2022-12-18T01:32:30;4.43;;;2.78;;
65238;SDS011;51827;51.186;6.926;2022-12-18T01:33:31;3.75;;;2.80;;
65238;SDS011;51827;51.186;6.926;2022-12-18T01:34:31;4.87;;;3.10;;
65238;SDS011;51827;51.186;6.926;2022-12-18T01:35:32;4.47;;;2.70;;
65238;SDS011;51827;51.186;6.926;2022-12-18T01:36:33;4.10;;;2.67;;
65238;SDS011;51827;51.186;6.926;2022-12-18T01:37:35;3.75;;;2.65;;
65238;SDS011;51827;51.186;6.926;2022-12-18T01:38:35;4.93;;;3.00;;
65238;SDS011;51827;51.186;6.926;2022-12-18T01:39:35;3.90;;;2.73;;
65238;SDS011;51827;51.186;6.926;2022-12-18T01:40:36;4.50;;;3.00;;
65238;SDS011;51827;51.186;6.926;2022-12-18T01:41:36;4.88;;;2.92;;
65238;SDS011;51827;51.186;6.926;2022-12-18T01:42:37;3.88;;;2.65;;
65238;SDS011;51827;51.186;6.926;2022-12-18T01:43:41;3.70;;;2.50;;
65238;SDS011;51827;51.186;6.926;2022-12-18T01:46:22;4.10;;;2.90;;
65238;SDS011;51827;51.186;6.926;2022-12-18T01:48:48;5.13;;;2.85;;
65238;SDS011;51827;51.186;6.926;2022-12-18T01:49:51;4.03;;;2.60;;
65238;SDS011;51827;51.186;6.926;2022-12-18T01:50:52;4.28;;;2.72;;
65238;SDS011;51827;51.186;6.926;2022-12-18T01:51:52;3.67;;;2.63;;
65238;SDS011;51827;51.186;6.926;2022-12-18T01:52:53;4.30;;;2.87;;
65238;SDS011;51827;51.186;6.926;2022-12-18T01:54:00;4.10;;;2.75;;
65238;SDS011;51827;51.186;6.926;2022-12-18T01:55:00;4.70;;;3.00;;
65238;SDS011;51827;51.186;6.926;2022-12-18T01:56:03;4.13;;;2.60;;
65238;SDS011;51827;51.186;6.926;2022-12-18T01:57:04;3.45;;;2.58;;
65238;SDS011;51827;51.186;6.926;2022-12-18T01:58:04;3.43;;;2.60;;
65238;SDS011;51827;51.186;6.926;2022-12-18T01:59:05;5.03;;;2.53;;
65238;SDS011;51827;51.186;6.926;2022-12-18T02:00:12;4.03;;;2.78;;
65238;SDS011;51827;51.186;6.926;2022-12-18T02:01:14;4.03;;;2.72;;
65238;SDS011;51827;51.186;6.926;2022-12-18T02:02:15;4.40;;;2.67;;
65238;SDS011;51827;51.186;6.926;2022-12-18T02:04:24;4.20;;;2.60;;
65238;SDS011;51827;51.186;6.926;2022-12-18T02:06:44;4.15;;;2.75;;
65238;SDS011;51827;51.186;6.926;2022-12-18T02:09:20;4.30;;;2.55;;
65238;SDS011;51827;51.186;6.926;2022-12-18T02:10:31;4.05;;;2.60;;
65238;SDS011;51827;51.186;6.926;2022-12-18T02:11:41;4.40;;;2.60;;
65238;SDS011;51827;51.186;6.926;2022-12-18T02:15:49;3.92;;;2.50;;
65238;SDS011;51827;51.186;6.926;2022-12-18T02:16:59;4.25;;;2.53;;
65238;SDS011;51827;51.186;6.926;2022-12-18T02:18:06;3.75;;;2.78;;
65238;SDS011;51827;51.186;6.926;2022-12-18T02:20:44;4.40;;;2.90;;
65238;SDS011;51827;51.186;6.926;2022-12-18T02:22:00;3.67;;;2.60;;
65238;SDS011;51827;51.186;6.926;2022-12-18T02:23:16;4.57;;;2.60;;
65238;SDS011;51827;51.186;6.926;2022-12-18T02:25:51;3.95;;;2.85;;
65238;SDS011;51827;51.186;6.926;2022-12-18T02:26:55;4.40;;;3.00;;
65238;SDS011;51827;51.186;6.926;2022-12-18T02:27:59;4.13;;;2.60;;
65238;SDS011;51827;51.186;6.926;2022-12-18T02:29:05;4.05;;;2.53;;
65238;SDS011;51827;51.186;6.926;2022-12-18T02:30:16;4.07;;;2.65;;
65238;SDS011;51827;51.186;6.926;2022-12-18T02:32:28;4.43;;;2.80;;
65238;SDS011;51827;51.186;6.926;2022-12-18T02:33:32;3.60;;;2.40;;
65238;SDS011;51827;51.186;6.926;2022-12-18T02:34:34;3.97;;;2.65;;
65238;SDS011;51827;51.186;6.926;2022-12-18T02:35:38;3.80;;;2.70;;
65238;SDS011;51827;51.186;6.926;2022-12-18T02:36:41;3.55;;;2.40;;
65238;SDS011;51827;51.186;6.926;2022-12-18T02:37:43;3.65;;;2.60;;
65238;SDS011;51827;51.186;6.926;2022-12-18T02:38:46;3.80;;;2.50;;
65238;SDS011;51827;51.186;6.926;2022-12-18T02:39:48;3.80;;;2.58;;
65238;SDS011;51827;51.186;6.926;2022-12-18T02:40:51;3.55;;;2.45;;
65238;SDS011;51827;51.186;6.926;2022-12-18T02:41:53;3.80;;;2.45;;
65238;SDS011;51827;51.186;6.926;2022-12-18T02:42:54;3.70;;;2.47;;
65238;SDS011;51827;51.186;6.926;2022-12-18T02:43:56;4.78;;;2.33;;
65238;SDS011;51827;51.186;6.926;2022-12-18T02:44:57;3.53;;;2.42;;
65238;SDS011;51827;51.186;6.926;2022-12-18T02:45:58;4.40;;;2.30;;
65238;SDS011;51827;51.186;6.926;2022-12-18T02:47:00;4.43;;;2.55;;
65238;SDS011;51827;51.186;6.926;2022-12-18T02:48:01;3.92;;;2.40;;
65238;SDS011;51827;51.186;6.926;2022-12-18T02:50:41;4.50;;;2.50;;
65238;SDS011;51827;51.186;6.926;2022-12-18T02:52:02;3.67;;;2.50;;
65238;SDS011;51827;51.186;6.926;2022-12-18T02:54:29;3.35;;;2.33;;
65238;SDS011;51827;51.186;6.926;2022-12-18T02:57:00;3.70;;;2.60;;
65238;SDS011;51827;51.186;6.926;2022-12-18T03:00:01;3.60;;;2.40;;
65238;SDS011;51827;51.186;6.926;2022-12-18T03:02:23;4.80;;;2.47;;
65238;SDS011;51827;51.186;6.926;2022-12-18T03:03:50;3.40;;;2.35;;
65238;SDS011;51827;51.186;6.926;2022-12-18T03:06:08;3.67;;;2.45;;
65238;SDS011;51827;51.186;6.926;2022-12-18T03:07:15;3.30;;;2.15;;
65238;SDS011;51827;51.186;6.926;2022-12-18T03:08:30;3.53;;;2.42;;
65238;SDS011;51827;51.186;6.926;2022-12-18T03:09:35;4.15;;;2.72;;
65238;SDS011;51827;51.186;6.926;2022-12-18T03:10:39;3.17;;;2.38;;
65238;SDS011;51827;51.186;6.926;2022-12-18T03:11:47;3.42;;;2.33;;
65238;SDS011;51827;51.186;6.926;2022-12-18T03:12:58;2.70;;;2.20;;
65238;SDS011;51827;51.186;6.926;2022-12-18T03:14:03;3.58;;;2.50;;
65238;SDS011;51827;51.186;6.926;2022-12-18T03:15:28;3.30;;;2.40;;
65238;SDS011;51827;51.186;6.926;2022-12-18T03:16:30;3.80;;;2.40;;
65238;SDS011;51827;51.186;6.926;2022-12-18T03:17:31;3.17;;;2.30;;
65238;SDS011;51827;51.186;6.926;2022-12-18T03:18:35;4.07;;;2.60;;
65238;SDS011;51827;51.186;6.926;2022-12-18T03:19:40;3.55;;;2.30;;
65238;SDS011;51827;51.186;6.926;2022-12-18T03:20:42;3.85;;;2.40;;
65238;SDS011;51827;51.186;6.926;2022-12-18T03:21:46;4.05;;;2.30;;
65238;SDS011;51827;51.186;6.926;2022-12-18T03:22:51;3.50;;;2.35;;
65238;SDS011;51827;51.186;6.926;2022-12-18T03:23:55;4.00;;;2.35;;
65238;SDS011;51827;51.186;6.926;2022-12-18T03:24:56;3.63;;;2.35;;
65238;SDS011;51827;51.186;6.926;2022-12-18T03:26:00;4.75;;;2.35;;
65238;SDS011;51827;51.186;6.926;2022-12-18T03:27:05;3.00;;;2.13;;
65238;SDS011;51827;51.186;6.926;2022-12-18T03:28:14;3.30;;;2.38;;
65238;SDS011;51827;51.186;6.926;2022-12-18T03:29:22;2.97;;;2.10;;
65238;SDS011;51827;51.186;6.926;2022-12-18T03:30:26;3.83;;;2.65;;
65238;SDS011;51827;51.186;6.926;2022-12-18T03:31:29;4.80;;;2.50;;
65238;SDS011;51827;51.186;6.926;2022-12-18T03:32:32;3.63;;;2.40;;
65238;SDS011;51827;51.186;6.926;2022-12-18T03:33:39;3.20;;;2.20;;
65238;SDS011;51827;51.186;6.926;2022-12-18T03:34:43;4.45;;;2.50;;
65238;SDS011;51827;51.186;6.926;2022-12-18T03:35:46;3.25;;;2.20;;
65238;SDS011;51827;51.186;6.926;2022-12-18T03:36:47;3.88;;;2.30;;
65238;SDS011;51827;51.186;6.926;2022-12-18T03:37:47;3.42;;;2.30;;
65238;SDS011;51827;51.186;6.926;2022-12-18T03:38:48;3.45;;;2.25;;
65238;SDS011;51827;51.186;6.926;2022-12-18T03:39:49;4.27;;;2.50;;
65238;SDS011;51827;51.186;6.926;2022-12-18T03:42:04;3.35;;;2.58;;
65238;SDS011;51827;51.186;6.926;2022-12-18T03:43:16;3.38;;;2.30;;
65238;SDS011;51827;51.186;6.926;2022-12-18T03:45:33;3.10;;;2.30;;
65238;SDS011;51827;51.186;6.926;2022-12-18T03:49:19;3.70;;;2.40;;
65238;SDS011;51827;51.186;6.926;2022-12-18T03:50:39;3.53;;;2.47;;
65238;SDS011;51827;51.186;6.926;2022-12-18T03:52:03;4.43;;;2.15;;
65238;SDS011;51827;51.186;6.926;2022-12-18T03:53:51;3.78;;;1.98;;
65238;SDS011;51827;51.186;6.926;2022-12-18T03:54:36;3.30;;;2.28;;
65238;SDS011;51827;51.186;6.926;2022-12-18T03:55:39;3.70;;;2.35;;
65238;SDS011;51827;51.186;6.926;2022-12-18T03:56:42;3.10;;;2.17;;
65238;SDS011;51827;51.186;6.926;2022-12-18T03:57:48;3.30;;;2.20;;
65238;SDS011;51827;51.186;6.926;2022-12-18T03:58:51;3.17;;;2.15;;
65238;SDS011;51827;51.186;6.926;2022-12-18T04:00:00;3.28;;;2.10;;
65238;SDS011;51827;51.186;6.926;2022-12-18T04:01:07;4.13;;;2.20;;
65238;SDS011;51827;51.186;6.926;2022-12-18T04:02:09;3.25;;;2.50;;
65238;SDS011;51827;51.186;6.926;2022-12-18T04:03:10;3.50;;;2.20;;
65238;SDS011;51827;51.186;6.926;2022-12-18T04:04:12;3.03;;;2.20;;
65238;SDS011;51827;51.186;6.926;2022-12-18T04:05:14;3.67;;;2.35;;
65238;SDS011;51827;51.186;6.926;2022-12-18T04:06:15;3.60;;;2.50;;
65238;SDS011;51827;51.186;6.926;2022-12-18T04:07:16;3.83;;;2.40;;
65238;SDS011;51827;51.186;6.926;2022-12-18T04:08:17;2.80;;;2.08;;
65238;SDS011;51827;51.186;6.926;2022-12-18T04:09:19;3.35;;;2.25;;
65238;SDS011;51827;51.186;6.926;2022-12-18T04:10:20;3.05;;;2.20;;
65238;SDS011;51827;51.186;6.926;2022-12-18T04:11:20;2.97;;;2.08;;
65238;SDS011;51827;51.186;6.926;2022-12-18T04:12:21;3.43;;;2.30;;
65238;SDS011;51827;51.186;6.926;2022-12-18T04:13:27;3.20;;;2.13;;
65238;SDS011;51827;51.186;6.926;2022-12-18T04:14:29;3.15;;;2.20;;
65238;SDS011;51827;51.186;6.926;2022-12-18T04:15:30;2.80;;;2.07;;
65238;SDS011;51827;51.186;6.926;2022-12-18T04:16:34;3.10;;;2.20;;
65238;SDS011;51827;51.186;6.926;2022-12-18T04:17:34;3.83;;;2.40;;
65238;SDS011;51827;51.186;6.926;2022-12-18T04:18:34;4.43;;;2.47;;
65238;SDS011;51827;51.186;6.926;2022-12-18T04:19:36;2.78;;;2.30;;
65238;SDS011;51827;51.186;6.926;2022-12-18T04:20:36;2.97;;;2.30;;
65238;SDS011;51827;51.186;6.926;2022-12-18T04:21:36;3.10;;;2.23;;
65238;SDS011;51827;51.186;6.926;2022-12-18T04:22:37;2.90;;;2.23;;
65238;SDS011;51827;51.186;6.926;2022-12-18T04:23:37;4.83;;;2.20;;
65238;SDS011;51827;51.186;6.926;2022-12-18T04:24:37;3.43;;;2.30;;
65238;SDS011;51827;51.186;6.926;2022-12-18T04:25:38;2.97;;;2.28;;
65238;SDS011;51827;51.186;6.926;2022-12-18T04:26:38;2.90;;;2.03;;
65238;SDS011;51827;51.186;6.926;2022-12-18T04:27:38;3.17;;;2.10;;
65238;SDS011;51827;51.186;6.926;2022-12-18T04:28:39;3.20;;;2.27;;
65238;SDS011;51827;51.186;6.926;2022-12-18T04:29:39;2.80;;;1.97;;
65238;SDS011;51827;51.186;6.926;2022-12-18T04:30:39;6.73;;;2.33;;
65238;SDS011;51827;51.186;6.926;2022-12-18T04:31:39;3.80;;;2.20;;
65238;SDS011;51827;51.186;6.926;2022-12-18T04:32:40;3.17;;;2.30;;
65238;SDS011;51827;51.186;6.926;2022-12-18T04:33:40;3.33;;;2.27;;
65238;SDS011;51827;51.186;6.926;2022-12-18T04:34:40;2.63;;;1.87;;
65238;SDS011;51827;51.186;6.926;2022-12-18T04:35:40;3.13;;;2.00;;
65238;SDS011;51827;51.186;6.926;2022-12-18T04:36:41;3.20;;;2.33;;
65238;SDS011;51827;51.186;6.926;2022-12-18T04:37:41;2.87;;;2.10;;
65238;SDS011;51827;51.186;6.926;2022-12-18T04:38:41;3.03;;;2.10;;
65238;SDS011;51827;51.186;6.926;2022-12-18T04:39:42;3.20;;;2.27;;
65238;SDS011;51827;51.186;6.926;2022-12-18T04:40:42;2.93;;;2.10;;
65238;SDS011;51827;51.186;6.926;2022-12-18T04:41:43;2.83;;;2.00;;
65238;SDS011;51827;51.186;6.926;2022-12-18T04:42:43;3.03;;;2.07;;
65238;SDS011;51827;51.186;6.926;2022-12-18T04:43:43;3.00;;;2.10;;
65238;SDS011;51827;51.186;6.926;2022-12-18T04:44:44;3.50;;;2.30;;
65238;SDS011;51827;51.186;6.926;2022-12-18T04:45:44;3.03;;;2.10;;
65238;SDS011;51827;51.186;6.926;2022-12-18T04:46:44;3.20;;;2.10;;
65238;SDS011;51827;51.186;6.926;2022-12-18T04:47:44;4.97;;;2.43;;
65238;SDS011;51827;51.186;6.926;2022-12-18T04:48:45;3.23;;;2.00;;
65238;SDS011;51827;51.186;6.926;2022-12-18T04:50:46;3.17;;;2.20;;
65238;SDS011;51827;51.186;6.926;2022-12-18T04:51:46;3.13;;;2.03;;
65238;SDS011;51827;51.186;6.926;2022-12-18T04:52:47;3.00;;;1.90;;
65238;SDS011;51827;51.186;6.926;2022-12-18T04:53:47;3.03;;;2.30;;
65238;SDS011;51827;51.186;6.926;2022-12-18T04:54:47;2.70;;;1.80;;
65238;SDS011;51827;51.186;6.926;2022-12-18T04:55:48;2.73;;;1.80;;
65238;SDS011;51827;51.186;6.926;2022-12-18T04:56:48;3.03;;;1.97;;
65238;SDS011;51827;51.186;6.926;2022-12-18T04:57:48;2.87;;;1.97;;
65238;SDS011;51827;51.186;6.926;2022-12-18T04:58:48;3.27;;;2.03;;
65238;SDS011;51827;51.186;6.926;2022-12-18T04:59:49;3.28;;;1.90;;
65238;SDS011;51827;51.186;6.926;2022-12-18T05:00:49;3.30;;;2.07;;
65238;SDS011;51827;51.186;6.926;2022-12-18T05:01:49;3.40;;;2.20;;
65238;SDS011;51827;51.186;6.926;2022-12-18T05:02:50;3.60;;;2.10;;
65238;SDS011;51827;51.186;6.926;2022-12-18T05:03:52;3.17;;;2.20;;
65238;SDS011;51827;51.186;6.926;2022-12-18T05:04:53;2.97;;;2.08;;
65238;SDS011;51827;51.186;6.926;2022-12-18T05:05:53;3.17;;;2.17;;
65238;SDS011;51827;51.186;6.926;2022-12-18T05:06:53;3.00;;;2.00;;
65238;SDS011;51827;51.186;6.926;2022-12-18T05:07:54;3.30;;;2.23;;
65238;SDS011;51827;51.186;6.926;2022-12-18T05:08:54;2.57;;;1.83;;
65238;SDS011;51827;51.186;6.926;2022-12-18T05:09:55;3.40;;;2.20;;
65238;SDS011;51827;51.186;6.926;2022-12-18T05:10:59;3.05;;;2.00;;
65238;SDS011;51827;51.186;6.926;2022-12-18T05:12:01;3.10;;;2.03;;
65238;SDS011;51827;51.186;6.926;2022-12-18T05:13:01;2.33;;;1.83;;
65238;SDS011;51827;51.186;6.926;2022-12-18T05:14:01;3.33;;;2.00;;
65238;SDS011;51827;51.186;6.926;2022-12-18T05:15:04;3.20;;;2.20;;
65238;SDS011;51827;51.186;6.926;2022-12-18T05:16:05;2.78;;;1.83;;
65238;SDS011;51827;51.186;6.926;2022-12-18T05:17:06;3.00;;;2.10;;
65238;SDS011;51827;51.186;6.926;2022-12-18T05:18:06;3.37;;;1.93;;
65238;SDS011;51827;51.186;6.926;2022-12-18T05:19:06;3.07;;;2.07;;
65238;SDS011;51827;51.186;6.926;2022-12-18T05:20:07;3.30;;;2.10;;
65238;SDS011;51827;51.186;6.926;2022-12-18T05:21:07;2.58;;;1.70;;
65238;SDS011;51827;51.186;6.926;2022-12-18T05:22:08;2.53;;;1.83;;
65238;SDS011;51827;51.186;6.926;2022-12-18T05:23:08;2.75;;;1.90;;
65238;SDS011;51827;51.186;6.926;2022-12-18T05:24:08;3.13;;;1.87;;
65238;SDS011;51827;51.186;6.926;2022-12-18T05:25:09;3.17;;;2.00;;
65238;SDS011;51827;51.186;6.926;2022-12-18T05:26:09;2.85;;;1.83;;
65238;SDS011;51827;51.186;6.926;2022-12-18T05:27:15;3.33;;;2.20;;
65238;SDS011;51827;51.186;6.926;2022-12-18T05:28:15;2.87;;;2.13;;
65238;SDS011;51827;51.186;6.926;2022-12-18T05:29:15;2.77;;;1.83;;
65238;SDS011;51827;51.186;6.926;2022-12-18T05:30:16;2.77;;;2.07;;
65238;SDS011;51827;51.186;6.926;2022-12-18T05:31:16;2.50;;;1.70;;
65238;SDS011;51827;51.186;6.926;2022-12-18T05:32:16;3.13;;;1.90;;
65238;SDS011;51827;51.186;6.926;2022-12-18T05:33:17;2.93;;;1.93;;
65238;SDS011;51827;51.186;6.926;2022-12-18T05:34:18;2.47;;;1.77;;
65238;SDS011;51827;51.186;6.926;2022-12-18T05:35:18;2.57;;;1.70;;
65238;SDS011;51827;51.186;6.926;2022-12-18T05:36:18;2.87;;;1.87;;
65238;SDS011;51827;51.186;6.926;2022-12-18T05:37:18;3.43;;;1.93;;
65238;SDS011;51827;51.186;6.926;2022-12-18T05:38:22;2.60;;;1.80;;
65238;SDS011;51827;51.186;6.926;2022-12-18T05:39:23;2.60;;;1.80;;
65238;SDS011;51827;51.186;6.926;2022-12-18T05:40:24;3.97;;;1.73;;
65238;SDS011;51827;51.186;6.926;2022-12-18T05:41:24;2.50;;;1.80;;
65238;SDS011;51827;51.186;6.926;2022-12-18T05:42:24;3.07;;;2.00;;
65238;SDS011;51827;51.186;6.926;2022-12-18T05:43:25;3.10;;;1.90;;
65238;SDS011;51827;51.186;6.926;2022-12-18T05:44:26;2.88;;;1.98;;
65238;SDS011;51827;51.186;6.926;2022-12-18T05:45:26;2.80;;;1.80;;
65238;SDS011;51827;51.186;6.926;2022-12-18T05:46:26;3.47;;;2.00;;
65238;SDS011;51827;51.186;6.926;2022-12-18T05:47:27;2.40;;;1.87;;
65238;SDS011;51827;51.186;6.926;2022-12-18T05:48:27;3.33;;;2.00;;
65238;SDS011;51827;51.186;6.926;2022-12-18T05:49:27;3.27;;;2.10;;
65238;SDS011;51827;51.186;6.926;2022-12-18T05:50:27;2.60;;;1.90;;
65238;SDS011;51827;51.186;6.926;2022-12-18T05:51:28;3.03;;;1.83;;
65238;SDS011;51827;51.186;6.926;2022-12-18T05:52:28;2.73;;;1.70;;
65238;SDS011;51827;51.186;6.926;2022-12-18T05:53:28;3.47;;;2.10;;
65238;SDS011;51827;51.186;6.926;2022-12-18T05:54:28;2.63;;;1.80;;
65238;SDS011;51827;51.186;6.926;2022-12-18T05:55:29;2.70;;;1.80;;
65238;SDS011;51827;51.186;6.926;2022-12-18T05:56:33;3.35;;;1.98;;
65238;SDS011;51827;51.186;6.926;2022-12-18T05:57:33;3.50;;;2.10;;
65238;SDS011;51827;51.186;6.926;2022-12-18T05:58:33;3.23;;;1.90;;
65238;SDS011;51827;51.186;6.926;2022-12-18T05:59:34;2.53;;;1.90;;
65238;SDS011;51827;51.186;6.926;2022-12-18T06:00:35;3.10;;;2.00;;
65238;SDS011;51827;51.186;6.926;2022-12-18T06:01:37;2.63;;;1.80;;
65238;SDS011;51827;51.186;6.926;2022-12-18T06:02:37;2.63;;;1.80;;
65238;SDS011;51827;51.186;6.926;2022-12-18T06:03:37;2.80;;;1.90;;
65238;SDS011;51827;51.186;6.926;2022-12-18T06:04:38;2.50;;;1.90;;
65238;SDS011;51827;51.186;6.926;2022-12-18T06:05:39;2.17;;;1.63;;
65238;SDS011;51827;51.186;6.926;2022-12-18T06:06:41;2.83;;;1.80;;
65238;SDS011;51827;51.186;6.926;2022-12-18T06:07:41;2.63;;;1.80;;
65238;SDS011;51827;51.186;6.926;2022-12-18T06:08:42;2.10;;;1.50;;
65238;SDS011;51827;51.186;6.926;2022-12-18T06:09:42;2.73;;;1.80;;
65238;SDS011;51827;51.186;6.926;2022-12-18T06:10:48;2.33;;;1.73;;
65238;SDS011;51827;51.186;6.926;2022-12-18T06:11:51;2.40;;;1.67;;
65238;SDS011;51827;51.186;6.926;2022-12-18T06:12:51;3.17;;;2.00;;
65238;SDS011;51827;51.186;6.926;2022-12-18T06:13:55;3.27;;;1.80;;
65238;SDS011;51827;51.186;6.926;2022-12-18T06:14:56;2.20;;;1.63;;
65238;SDS011;51827;51.186;6.926;2022-12-18T06:15:56;3.00;;;1.80;;
65238;SDS011;51827;51.186;6.926;2022-12-18T06:16:56;2.97;;;1.80;;
65238;SDS011;51827;51.186;6.926;2022-12-18T06:17:56;2.60;;;1.80;;
65238;SDS011;51827;51.186;6.926;2022-12-18T06:18:57;2.92;;;1.80;;
65238;SDS011;51827;51.186;6.926;2022-12-18T06:20:03;2.65;;;1.83;;
65238;SDS011;51827;51.186;6.926;2022-12-18T06:21:04;2.80;;;1.60;;
65238;SDS011;51827;51.186;6.926;2022-12-18T06:22:05;2.78;;;1.80;;
65238;SDS011;51827;51.186;6.926;2022-12-18T06:23:05;2.67;;;1.80;;
65238;SDS011;51827;51.186;6.926;2022-12-18T06:24:06;2.63;;;1.90;;
65238;SDS011;51827;51.186;6.926;2022-12-18T06:25:06;2.47;;;1.80;;
65238;SDS011;51827;51.186;6.926;2022-12-18T06:26:08;2.85;;;1.80;;
65238;SDS011;51827;51.186;6.926;2022-12-18T06:27:10;2.10;;;1.60;;
65238;SDS011;51827;51.186;6.926;2022-12-18T06:28:10;2.50;;;1.83;;
65238;SDS011;51827;51.186;6.926;2022-12-18T06:29:10;3.20;;;2.00;;
65238;SDS011;51827;51.186;6.926;2022-12-18T06:30:11;2.53;;;1.63;;
65238;SDS011;51827;51.186;6.926;2022-12-18T06:31:11;2.35;;;1.75;;
65238;SDS011;51827;51.186;6.926;2022-12-18T06:32:11;2.60;;;1.70;;
65238;SDS011;51827;51.186;6.926;2022-12-18T06:33:12;2.40;;;1.60;;
65238;SDS011;51827;51.186;6.926;2022-12-18T06:34:12;2.70;;;1.85;;
65238;SDS011;51827;51.186;6.926;2022-12-18T06:35:13;3.50;;;1.90;;
65238;SDS011;51827;51.186;6.926;2022-12-18T06:36:13;3.00;;;1.70;;
65238;SDS011;51827;51.186;6.926;2022-12-18T06:37:13;2.92;;;1.92;;
65238;SDS011;51827;51.186;6.926;2022-12-18T06:38:14;2.73;;;1.90;;
65238;SDS011;51827;51.186;6.926;2022-12-18T06:39:14;2.63;;;1.73;;
65238;SDS011;51827;51.186;6.926;2022-12-18T06:40:14;2.73;;;1.80;;
65238;SDS011;51827;51.186;6.926;2022-12-18T06:41:18;2.30;;;1.70;;
65238;SDS011;51827;51.186;6.926;2022-12-18T06:42:23;2.53;;;1.63;;
65238;SDS011;51827;51.186;6.926;2022-12-18T06:43:24;3.03;;;2.00;;